SPECI KECG 200008Z 01008KT 5SM RA BR FEW004 BKN047 OVC065 03/03 A3011 RMK AO2 P0003 
METAR KECG 192354Z 36008KT 5SM RA BR FEW020 OVC055 03/03 A3013 RMK AO2 SLP201 P0004 60029 T00330033 10044 20033 55003 
METAR KECG 192254Z 01011KT 6SM -RA BR FEW005 BKN055 OVC085 03/03 A3008 RMK AO2 PRESFR SLP186 P0005 T00330028 
SPECI KECG 192201Z 36009KT 5SM RA BR SCT005 BKN046 OVC060 03/03 A3013 RMK AO2 P0001 
METAR KECG 192154Z 36008KT 2SM RA BR BKN007 BKN046 OVC065 03/03 A3014 RMK AO2 SLP206 P0007 T00330033 
SPECI KECG 192058Z 34008KT 2SM RA BR BKN007 BKN046 OVC065 04/03 A3013 RMK AO2 P0000 
SPECI KECG 192058Z 34008KT 2SM RA BR BKN007 BKN046 OVC065 04/03 A3013 RMK AO2 P0000 
METAR KECG 192054Z 36007KT 4SM RA BR BKN007 OVC065 04/03 A3014 RMK AO2 SLP205 P0006 60013 T00390033 55015 
SPECI KECG 192029Z 01007KT 4SM RA BR SCT007 OVC065 04/03 A3013 RMK AO2 P0003 
METAR KECG 191954Z 02007KT 6SM -RA BR BKN007 BKN023 BKN085 04/03 A3012 RMK AO2 SLP199 P0002 T00390033 
SPECI KECG 191935Z 03007KT 6SM -RA BR SCT007 BKN027 04/03 A3013 RMK AO2 P0002 
SPECI KECG 191916Z 01010KT 5SM -RA BR BKN009 BKN032 OVC043 04/03 A3013 RMK AO2 P0001 
METAR KECG 191854Z 02008KT 6SM -RA BR FEW009 BKN030 OVC070 04/03 A3016 RMK AO2 SLP211 P0005 T00440033 
SPECI KECG 191847Z 01007KT 5SM -RA BR BKN032 OVC070 04/03 A3016 RMK AO2 P0005 
METAR KECG 191754Z 03007KT 5SM RA BR OVC028 04/03 A3018 RMK AO2 SLP220 P0005 60013 T00440028 10061 20044 58009 
SPECI KECG 191701Z 03008KT 5SM -RA BR FEW025 SCT030 OVC065 06/03 A3019 RMK AO2 P0000 $ 
METAR KECG 191654Z 03009KT 4SM -RA BR BKN028 OVC065 06/03 A3019 RMK AO2 SLP224 P0003 T00560033 $ 
SPECI KECG 191627Z 04008KT 4SM RA BKN026 BKN031 OVC065 06/03 A3019 RMK AO2 PRESFR P0002 $ 
SPECI KECG 191609Z 01008KT 4SM -RA BR SCT026 BKN050 OVC065 06/03 A3022 RMK AO2 P0001 
METAR KECG 191554Z 02008KT 6SM -RA BKN025 BKN055 06/03 A3021 RMK AO2 SLP229 P0003 T00560028 
METAR KECG 191454Z 02004KT 5SM -RA FEW060 BKN075 06/01 A3021 RMK AO2 SLP229 P0002 60002 T00560011 51009 
METAR KECG 191354Z 04005KT 10SM -RA SCT045 BKN090 06/00 A3019 RMK AO2 RAB33 SLP222 P0000 T00560000 
METAR KECG 191254Z 36007KT 10SM OVC065 06/M01 A3021 RMK AO2 RAB08E53 SLP229 P0000 T00561006 
METAR KECG 191154Z 33006KT 10SM BKN075 OVC090 06/M01 A3018 RMK AO2 SLP220 T00561006 10056 20039 51009 $ 
METAR KECG 191054Z AUTO 29004KT 10SM OVC070 06/M01 A3018 RMK AO2 SLP219 T00561006 $ 
METAR KECG 190954Z AUTO 28006KT 10SM OVC070 06/00 A3019 RMK AO2 SLP223 T00560000 $ 
METAR KECG 190854Z AUTO 25004KT 10SM OVC070 06/00 A3016 RMK AO2 SLP211 T00560000 50004 $ 
METAR KECG 190754Z AUTO 27005KT 10SM OVC075 06/00 A3018 RMK AO2 SLP220 T00560000 $ 
METAR KECG 190654Z AUTO 24006KT 10SM CLR 05/01 A3017 RMK AO2 SLP217 T00500006 $ 
METAR KECG 190554Z AUTO 00000KT 10SM CLR 04/00 A3015 RMK AO2 SLP207 T00440000 10056 20039 56015 $ 
METAR KECG 190454Z AUTO 26004KT 10SM CLR 06/M01 A3015 RMK AO2 SLP210 T00561006 400831011 $ 
METAR KECG 190354Z AUTO 00000KT 10SM CLR 05/00 A3014 RMK AO2 SLP207 T00500000 $ 
METAR KECG 190254Z AUTO 23003KT 10SM SCT095 05/01 A3019 RMK AO2 SLP223 T00500006 51009 $ 
METAR KECG 190154Z 25003KT 10SM SCT110 05/00 A3017 RMK AO2 SLP217 T00500000 $ 
METAR KECG 190054Z 26005KT 10SM CLR 06/01 A3020 RMK AO2 SLP225 T00560006 $ 
METAR KECG 182354Z 29003KT 10SM CLR 05/01 A3016 RMK AO2 SLP214 T00500011 10083 20050 56010 $ 
METAR KECG 182254Z 28004KT 10SM CLR 06/01 A3017 RMK AO2 SLP217 T00610006 $ 
METAR KECG 182154Z 26003KT 10SM CLR 07/01 A3018 RMK AO2 SLP218 T00670006 $ 
METAR KECG 182054Z 25006KT 10SM CLR 08/01 A3019 RMK AO2 SLP224 T00780006 55002 $ 
METAR KECG 181954Z 00000KT CLR 08/00 A3017 RMK AO2 SLP216 T00830000 $ 
METAR KECG 181854Z VRB03KT CLR 08/M01 A3019 RMK AO2 SLP221 T00781006 $ 
METAR KECG 181754Z 00000KT 10SM CLR 08/00 A3020 RMK AO2 SLP225 T00780000 10083 21011 58026 $ 
METAR KECG 181654Z 01006KT 10SM CLR 08/00 A3022 RMK AO2 SLP233 T00780000 $ 
METAR KECG 181554Z 35006KT 10SM CLR 07/00 A3026 RMK AO2 SLP247 T00670000 $ 
METAR KECG 181454Z 35008KT 10SM CLR 06/M01 A3028 RMK AO2 SLP252 T00561011 51015 $ 
METAR KECG 181354Z 35011KT 10SM CLR 05/M02 A3026 RMK AO2 SLP246 T00501017 
METAR KECG 181254Z 31007KT 10SM CLR 03/M02 A3025 RMK AO2 SLP244 T00281022 
METAR KECG 181154Z 30008KT 10SM CLR M01/M03 A3023 RMK AO2 SLP237 70001 T10111033 10056 21011 53022 
METAR KECG 181054Z AUTO 29007KT 10SM CLR 00/M03 A3021 RMK AO2 SLP230 T00001028 FZRANO 
METAR KECG 180954Z AUTO 30008KT 10SM CLR 01/M03 A3019 RMK AO2 SLP222 T00061028 FZRANO 
METAR KECG 180854Z AUTO 32006KT 10SM CLR 01/M03 A3017 RMK AO2 SLP215 T00111028 51019 FZRANO 
METAR KECG 180754Z AUTO 31008KT 10SM CLR 02/M02 A3016 RMK AO2 SLP213 T00221022 FZRANO 
METAR KECG 180654Z AUTO 32008KT 10SM CLR 04/M02 A3014 RMK AO2 SLP206 T00441017 
METAR KECG 180554Z AUTO 34010KT 10SM CLR 06/M01 A3011 RMK AO2 SLP196 T00561011 10100 20056 51030 
METAR KECG 180454Z AUTO 36014KT 10SM CLR 07/M01 A3009 RMK AO2 SLP189 T00671011 401220067 
METAR KECG 180454Z AUTO 36014KT 10SM CLR 07/M01 A3009 RMK AO2 SLP189 T00671011 401220067 
METAR KECG 180354Z AUTO 36013KT 10SM CLR 08/M01 A3007 RMK AO2 SLP181 T00781011 
METAR KECG 180254Z 01015KT 10SM CLR 09/01 A3002 RMK AO2 SLP166 T00890006 53037 
METAR KECG 180154Z 29008KT 10SM CLR 08/04 A2998 RMK AO2 SLP153 T00780044 
METAR KECG 180054Z 27007KT 10SM CLR 09/07 A2995 RMK AO2 SLP140 T00890067 
METAR KECG 172354Z 25007KT 8SM CLR 09/09 A2992 RMK AO2 SLP130 T00940089 10122 20089 53027 
METAR KECG 172154Z 25006KT 8SM CLR 11/09 A2985 RMK AO2 SLP109 T01060094 
METAR KECG 172054Z 24008KT 8SM CLR 11/10 A2984 RMK AO2 SLP103 T01110100 53009 
METAR KECG 171954Z 23006KT 10SM FEW095 12/10 A2981 RMK AO2 SLP094 T01170100 
METAR KECG 171854Z 25007KT 9SM FEW014 BKN090 12/10 A2979 RMK AO2 SLP087 T01170100 
SPECI KECG 171814Z 25007KT 8SM SCT013 OVC085 12/10 A2980 RMK AO2 
METAR KECG 171754Z 27007KT 8SM BKN011 BKN085 11/09 A2981 RMK AO2 SLP093 60001 T01110094 10111 20094 56022 
SPECI KECG 171726Z 26008KT 7SM BR BKN011 BKN085 11/10 A2981 RMK AO2 
METAR KECG 171654Z 26007KT 6SM BR BKN009 OVC075 11/10 A2982 RMK AO2 RAE32 CIG 007V012 SLP097 P0000 T01060100 
SPECI KECG 171646Z 25007KT 6SM BR BKN009 OVC070 11/10 A2982 RMK AO2 RAE32 CIG 007V011 P0000 
SPECI KECG 171618Z 26007KT 6SM -RA BR SCT009 BKN040 OVC070 11/09 A2984 RMK AO2 P0000 
METAR KECG 171554Z 26009KT 3SM -RA BR OVC009 10/09 A2985 RMK AO2 SLP109 P0001 T01000094 
SPECI KECG 171501Z 25008KT 3SM BR OVC009 10/09 A2987 RMK AO2 RAE1456 P0000 
METAR KECG 171454Z 26011KT 2SM -RA BR BKN009 OVC036 10/09 A2987 RMK AO2 RAB1356E23B43 CIG 007V011 SLP115 P0000 60000 T01000094 50008 
METAR KECG 171454Z 26011KT 2SM -RA BR BKN009 OVC036 10/09 A2987 RMK AO2 RAB1356E23B43 CIG 007V011 SLP115 P0000 60000 T01000094 50008 
SPECI KECG 171439Z 25008KT 2SM BR BKN009 OVC034 10/09 A2987 RMK AO2 RAB1356E23 CIG 007V012 P0000 
SPECI KECG 171422Z 25010KT 2SM -RA BR SCT009 OVC030 09/09 A2987 RMK AO2 RAB1356 P0000 
SPECI KECG 171410Z 25009KT 2SM -RA BR FEW011 OVC030 09/09 A2987 RMK AO2 RAB1356 P0000 
SPECI KECG 171401Z 24010KT 5SM -RA BR OVC028 09/09 A2987 RMK AO2 RAB1356 P0000 
METAR KECG 171354Z 25010KT 2SM BR OVC020 09/09 A2988 RMK AO2 RAE49 SLP118 P0000 T00940089 
SPECI KECG 171335Z 25010KT 2SM -RA BR OVC020 09/08 A2987 RMK AO2 P0000 
SPECI KECG 171327Z 26009KT 7SM -RA BKN026 BKN032 OVC047 10/08 A2987 RMK AO2 P0000 
METAR KECG 171254Z 24007KT 10SM -RA BKN038 OVC045 10/08 A2986 RMK AO2 RAB44 SLP111 P0000 T01000078 
METAR KECG 171154Z AUTO 20008KT 10SM OVC036 09/08 A2985 RMK AO2 RAE18 SLP107 P0001 60003 70003 T00940078 10117 20094 58001 
METAR KECG 171054Z AUTO 21008KT 8SM -RA FEW048 BKN060 OVC085 09/08 A2986 RMK AO2 SLP111 P0001 T00940078 
METAR KECG 170954Z AUTO 25007KT 9SM -RA SCT065 OVC095 10/07 A2986 RMK AO2 SLP112 P0001 T01000072 
METAR KECG 170854Z AUTO 23006KT 10SM -RA SCT060 BKN095 11/08 A2985 RMK AO2 RAB00 SLP108 P0000 60000 T01060083 56005 
METAR KECG 170754Z AUTO 24008KT 10SM FEW110 11/09 A2986 RMK AO2 RAE11 SLP111 P0000 T01060094 
METAR KECG 170654Z AUTO 20006KT 10SM -RA OVC090 12/10 A2986 RMK AO2 RAB21 SLP109 P0000 T01170100 
METAR KECG 170554Z AUTO 21006KT 10SM CLR 12/09 A2987 RMK AO2 SLP113 60000 T01170094 10122 20100 58034 
METAR KECG 170454Z AUTO 20007KT 10SM SCT120 12/09 A2990 RMK AO2 SLP125 T01170094 401391028 
METAR KECG 170354Z AUTO 20005KT 10SM BKN085 12/08 A2994 RMK AO2 RAE09 SLP137 P0000 T01170083 
METAR KECG 170254Z 00000KT 10SM -RA BKN085 OVC100 10/08 A2997 RMK AO2 RAB16 SLP147 P0000 60000 T01000078 58010 
METAR KECG 170154Z 00000KT 7SM OVC090 10/07 A2997 RMK AO2 TSB26E27RAE0056 SLP150 P0000 T01000072 
SPECI KECG 170127Z 19005KT 7SM OVC090 11/06 A2999 RMK AO2 TSB26E27RAE0056 P0000 
METAR KECG 170054Z 20004KT 6SM -RA OVC090 11/07 A3000 RMK AO2 RAB45 SLP157 P0000 T01110067 
METAR KECG 162354Z 19005KT 5SM HZ OVC095 11/06 A3000 RMK AO2 RAB2257E27 SLP157 P0000 60000 T01110056 10139 20111 58009 
METAR KECG 162254Z 19007KT 10SM OVC095 12/04 A3001 RMK AO2 RAE13 SLP160 P0000 T01170039